Time;durP1;ratioP1;P1;durP2;ratioP2;P2;SDS_P1;SDS_P2;PMS_P1;PMS_P2;Temp;Humidity;BMP_temperature;BMP_pressure;BME280_temperature;BME280_humidity;BME280_pressure;Samples;Min_cycle;Max_cycle;Signal;HPM_P1;HPM_P2
2021/09/19 00:02:05;;;;;;;16.58;6.80;;;;;;;4.89;65.76;100366.28;5135131;27;20035;-76
2021/09/19 00:04:31;;;;;;;16.95;5.72;;;;;;;4.90;65.78;100365.38;5134931;27;20533;-79
2021/09/19 00:06:57;;;;;;;14.27;6.18;;;;;;;4.90;66.09;100368.00;5135177;27;20038;-78
2021/09/19 00:09:23;;;;;;;12.10;5.40;;;;;;;4.90;65.98;100365.38;5133304;27;20059;-76
2021/09/19 00:11:48;;;;;;;15.65;6.32;;;;;;;4.92;65.61;100366.19;5135104;27;20035;-77
2021/09/19 00:14:17;;;;;;;15.38;5.65;;;;;;;4.89;65.77;100362.84;5134823;27;20031;-78
2021/09/19 00:16:43;;;;;;;12.50;5.40;;;;;;;4.89;65.68;100376.78;5133346;27;20095;-76
2021/09/19 00:19:10;;;;;;;11.35;5.57;;;;;;;4.88;65.81;100371.59;5133403;27;20061;-76
2021/09/19 00:21:36;;;;;;;12.70;5.97;;;;;;;4.90;65.79;100360.13;5134674;27;20039;-76
2021/09/19 00:24:02;;;;;;;12.60;5.68;;;;;;;4.88;65.68;100369.81;5134406;27;20035;-79
2021/09/19 00:26:28;;;;;;;13.70;5.72;;;;;;;4.85;65.70;100381.28;5134638;27;20037;-76
2021/09/19 00:28:54;;;;;;;9.88;5.65;;;;;;;4.83;65.41;100371.78;5134587;27;20118;-75
2021/09/19 00:31:20;;;;;;;12.40;5.88;;;;;;;4.83;65.66;100370.00;5134769;27;20391;-79
2021/09/19 00:33:45;;;;;;;14.02;5.50;;;;;;;4.79;65.99;100380.72;5134413;27;20066;-75
2021/09/19 00:36:11;;;;;;;12.55;5.13;;;;;;;4.80;65.81;100380.63;5132954;27;20035;-77
2021/09/19 00:38:37;;;;;;;12.15;5.40;;;;;;;4.82;66.04;100367.47;5134496;27;20034;-77
2021/09/19 00:41:03;;;;;;;11.85;5.22;;;;;;;4.80;66.09;100375.41;5134736;27;20031;-77
2021/09/19 00:43:28;;;;;;;11.90;5.13;;;;;;;4.81;65.64;100369.25;5134550;27;20200;-79
2021/09/19 00:45:54;;;;;;;13.93;4.97;;;;;;;4.77;65.51;100380.78;5134125;27;20046;-80
2021/09/19 00:48:20;;;;;;;14.73;5.43;;;;;;;4.77;65.44;100374.66;5134127;27;20035;-77
2021/09/19 00:50:46;;;;;;;10.25;4.78;;;;;;;4.77;65.23;100379.91;5134011;27;20379;-77
2021/09/19 00:53:12;;;;;;;15.38;6.47;;;;;;;4.77;65.36;100375.53;5133918;27;20050;-81
2021/09/19 00:55:42;;;;;;;12.02;5.00;;;;;;;4.74;65.36;100382.69;5134156;27;20035;-76
2021/09/19 00:58:11;;;;;;;14.38;5.70;;;;;;;4.74;65.05;100374.81;5132671;27;20114;-77
2021/09/19 01:00:38;;;;;;;10.18;4.68;;;;;;;4.71;65.16;100386.28;5133810;27;20035;-76
2021/09/19 01:03:05;;;;;;;11.30;4.80;;;;;;;4.70;64.92;100393.25;5133984;27;20409;-77
2021/09/19 01:05:31;;;;;;;8.63;4.72;;;;;;;4.69;64.89;100378.44;5132178;27;20062;-79
2021/09/19 01:07:58;;;;;;;15.63;5.97;;;;;;;4.67;64.98;100384.66;5133739;27;20800;-76
2021/09/19 01:10:25;;;;;;;12.10;5.85;;;;;;;4.67;65.05;100376.81;5132541;27;20037;-76
2021/09/19 01:12:53;;;;;;;10.63;5.20;;;;;;;4.65;64.56;100384.75;5132128;27;20035;-75
2021/09/19 01:15:19;;;;;;;;;;;;;;;4.62;64.90;100377.03;5134290;27;20080;-77
2021/09/19 01:17:45;;;;;;;10.93;4.95;;;;;;;4.58;65.04;100378.03;5133473;27;19907;-77
2021/09/19 01:20:14;;;;;;;13.43;4.72;;;;;;;4.58;65.15;100370.19;5133401;27;20027;-77
2021/09/19 01:23:03;;;;;;;13.25;4.75;;;;;;;4.59;64.77;100365.81;5132112;27;20023;-79
2021/09/19 01:25:29;;;;;;;14.13;5.88;;;;;;;4.59;64.45;100369.28;5131851;27;20134;-76
2021/09/19 01:27:55;;;;;;;14.07;5.38;;;;;;;4.56;64.80;100351.06;5133393;27;20145;-79
2021/09/19 01:30:21;;;;;;;12.63;5.55;;;;;;;4.54;65.00;100355.50;5133159;27;20494;-77
2021/09/19 01:32:47;;;;;;;11.98;5.25;;;;;;;4.52;64.68;100350.34;5131792;27;20078;-77
2021/09/19 01:35:13;;;;;;;16.00;4.70;;;;;;;4.51;64.90;100353.00;5131764;27;20443;-77
2021/09/19 01:37:38;;;;;;;15.27;4.97;;;;;;;4.47;65.08;100348.81;5133021;27;20047;-78
2021/09/19 01:40:06;;;;;;;13.45;4.70;;;;;;;4.51;64.77;100353.88;5131846;27;20058;-77
2021/09/19 01:42:31;;;;;;;10.73;4.85;;;;;;;4.47;64.74;100347.03;5132044;27;20054;-76
2021/09/19 01:44:58;;;;;;;13.32;5.18;;;;;;;4.47;64.72;100352.28;5133107;27;20039;-78
2021/09/19 01:47:23;;;;;;;13.68;5.65;;;;;;;4.47;64.71;100336.56;5132836;27;20062;-80
2021/09/19 01:49:50;;;;;;;10.98;4.63;;;;;;;4.45;65.16;100337.53;5132925;27;20039;-78
2021/09/19 01:52:18;;;;;;;19.23;5.47;;;;;;;4.44;64.80;100328.00;5132851;27;20034;-75
2021/09/19 01:54:44;;;;;;;21.05;5.38;;;;;;;4.38;65.01;100327.31;5131307;27;20095;-76
2021/09/19 01:57:10;;;;;;;20.08;4.93;;;;;;;4.38;64.84;100336.94;5132775;27;20047;-79
2021/09/19 01:59:35;;;;;;;15.10;5.32;;;;;;;4.41;65.17;100326.38;5132464;27;20126;-75
2021/09/19 02:02:02;;;;;;;18.17;5.60;;;;;;;4.42;64.97;100319.34;5116473;27;20522;-77
2021/09/19 02:04:28;;;;;;;17.38;5.70;;;;;;;4.48;64.60;100334.81;5092919;28;20035;-76
2021/09/19 02:06:53;;;;;;;21.80;4.95;;;;;;;4.46;64.56;100313.94;5111234;28;20179;-79
2021/09/19 02:09:19;;;;;;;21.17;4.90;;;;;;;4.46;64.61;100313.06;5112210;28;20038;-80
2021/09/19 02:11:45;;;;;;;19.48;5.30;;;;;;;4.49;64.59;100312.94;5111729;28;20038;-78
2021/09/19 02:14:11;;;;;;;23.88;5.93;;;;;;;4.49;64.31;100307.72;5110783;28;20047;-78
2021/09/19 02:16:37;;;;;;;24.23;6.22;;;;;;;4.45;64.53;100306.13;5111832;28;20637;-76
2021/09/19 02:19:03;;;;;;;18.17;5.20;;;;;;;4.47;64.67;100314.78;5112360;28;20116;-75
2021/09/19 02:21:28;;;;;;;22.35;5.78;;;;;;;4.48;64.94;100306.00;5110920;28;20088;-76
2021/09/19 02:23:54;;;;;;;15.35;5.07;;;;;;;4.43;64.32;100308.81;5111731;28;20036;-77
2021/09/19 02:26:20;;;;;;;22.00;5.30;;;;;;;4.39;64.46;100307.22;5112311;28;20372;-79
2021/09/19 02:28:46;;;;;;;13.45;4.93;;;;;;;4.43;64.70;100310.59;5112254;28;20084;-76
2021/09/19 02:31:12;;;;;;;19.15;4.82;;;;;;;4.43;64.30;100314.03;5110927;28;20380;-76
2021/09/19 02:33:37;;;;;;;14.48;5.22;;;;;;;4.40;64.43;100313.31;5111721;28;20048;-77
2021/09/19 02:36:04;;;;;;;14.48;5.10;;;;;;;4.41;64.59;100312.41;5111930;28;20128;-76
2021/09/19 02:38:29;;;;;;;16.63;5.28;;;;;;;4.43;64.38;100310.59;5110680;28;20039;-76
2021/09/19 02:40:55;;;;;;;14.57;4.68;;;;;;;4.41;64.17;100323.75;5111634;28;20038;-76
2021/09/19 02:43:22;;;;;;;11.77;5.18;;;;;;;4.40;64.62;100311.56;5112335;28;20070;-76
2021/09/19 02:45:48;;;;;;;14.95;5.53;;;;;;;4.38;64.60;100322.06;5112170;28;20040;-78
2021/09/19 02:48:14;;;;;;;13.32;5.65;;;;;;;4.38;64.48;100308.16;5111232;28;20027;-78
2021/09/19 02:50:39;;;;;;;11.07;5.05;;;;;;;4.35;64.79;100306.50;5112512;28;20042;-76
2021/09/19 02:53:05;;;;;;;15.90;5.45;;;;;;;4.37;64.78;100319.53;5112029;28;20038;-77
2021/09/19 02:55:31;;;;;;;12.88;5.70;;;;;;;4.36;65.20;100317.81;5115394;28;20027;-76
2021/09/19 02:57:57;;;;;;;14.10;5.07;;;;;;;4.39;64.65;100315.09;5114356;28;20068;-75
2021/09/19 03:00:22;;;;;;;14.40;5.07;;;;;;;4.40;64.78;100306.31;5115936;28;20041;-79
2021/09/19 03:02:50;;;;;;;14.02;5.10;;;;;;;4.38;64.97;100311.59;5115753;28;20047;-77
2021/09/19 03:05:16;;;;;;;18.50;5.90;;;;;;;4.33;65.35;100303.09;5115949;28;20035;-75
2021/09/19 03:07:43;;;;;;;16.48;5.50;;;;;;;4.27;65.27;100290.25;5115917;28;20559;-76
2021/09/19 03:10:11;;;;;;;15.98;5.82;;;;;;;4.30;65.29;100318.94;5115927;28;20044;-78
2021/09/19 03:12:37;;;;;;;20.15;6.47;;;;;;;4.27;65.60;100298.09;5115558;28;20123;-76
2021/09/19 03:15:03;;;;;;;18.75;6.53;;;;;;;4.28;65.58;100314.69;5114317;28;20066;-79
2021/09/19 03:17:29;;;;;;;24.38;5.57;;;;;;;4.28;65.64;100305.03;5115994;28;20221;-80
2021/09/19 03:19:55;;;;;;;29.60;5.80;;;;;;;4.30;65.70;100298.00;5114290;28;20127;-77
2021/09/19 03:22:21;;;;;;;21.20;6.18;;;;;;;4.31;65.96;100297.09;5114483;28;20040;-78
2021/09/19 03:24:46;;;;;;;18.27;4.78;;;;;;;4.31;65.62;100314.53;5115276;28;20028;-79
2021/09/19 03:27:12;;;;;;;21.15;4.97;;;;;;;4.31;65.79;100297.09;5115392;28;20134;-79
2021/09/19 03:29:38;;;;;;;18.55;5.65;;;;;;;4.28;65.75;100294.56;5115719;28;20122;-77
2021/09/19 03:32:04;;;;;;;15.80;5.80;;;;;;;4.30;65.57;100295.38;5115271;28;20111;-80
2021/09/19 03:34:33;;;;;;;16.02;5.70;;;;;;;4.33;65.86;100310.09;5097384;28;20036;-80
2021/09/19 03:37:00;;;;;;;23.25;5.57;;;;;;;4.32;65.48;100298.75;5115728;28;20039;-77
2021/09/19 03:39:26;;;;;;;18.23;6.32;;;;;;;4.34;65.81;100298.72;5115452;28;20089;-76
2021/09/19 03:41:52;;;;;;;11.23;4.53;;;;;;;4.30;65.42;100303.22;5114720;28;20044;-77
2021/09/19 03:44:17;;;;;;;17.80;5.10;;;;;;;4.34;65.88;100317.88;5113911;28;20059;-78
2021/09/19 03:46:43;;;;;;;18.67;6.35;;;;;;;4.33;65.93;100297.84;5115352;28;20077;-76
2021/09/19 03:49:09;;;;;;;16.88;5.45;;;;;;;4.27;66.27;100316.44;5115279;28;20406;-77
2021/09/19 03:51:35;;;;;;;20.30;6.65;;;;;;;4.32;66.25;100303.16;5115827;28;20046;-81
2021/09/19 03:54:00;;;;;;;15.43;5.78;;;;;;;4.32;65.89;100290.06;5113632;28;20043;-78
2021/09/19 03:56:26;;;;;;;13.57;4.85;;;;;;;4.26;66.34;100306.91;5115044;28;20039;-77
2021/09/19 03:58:52;;;;;;;20.67;5.65;;;;;;;4.28;66.25;100305.03;5114948;28;20052;-79
2021/09/19 04:01:18;;;;;;;13.05;5.53;;;;;;;4.35;66.34;100306.50;5115302;28;20447;-77
2021/09/19 04:03:43;;;;;;;19.90;5.93;;;;;;;4.36;66.19;100300.38;5114728;28;20587;-76
2021/09/19 04:06:09;;;;;;;19.85;5.88;;;;;;;4.40;66.21;100308.94;5113075;28;20567;-76
2021/09/19 04:08:35;;;;;;;21.48;5.68;;;;;;;4.34;66.41;100312.66;5114551;28;20380;-80
2021/09/19 04:11:01;;;;;;;21.13;6.20;;;;;;;4.42;66.21;100319.34;5114289;28;20023;-81
2021/09/19 04:13:27;;;;;;;22.10;6.25;;;;;;;4.37;66.46;100295.97;5114358;28;20093;-76
2021/09/19 04:15:52;;;;;;;19.58;5.97;;;;;;;4.41;66.11;100301.94;5113257;28;20509;-76
2021/09/19 04:18:18;;;;;;;19.75;5.53;;;;;;;4.40;65.99;100323.78;5115399;28;20080;-79
2021/09/19 04:20:45;;;;;;;22.40;6.72;;;;;;;4.41;66.51;100307.16;5113678;28;20055;-80
2021/09/19 04:23:11;;;;;;;20.80;6.22;;;;;;;4.47;65.93;100330.47;5115631;28;20039;-77
2021/09/19 04:25:36;;;;;;;16.02;6.38;;;;;;;4.48;65.88;100319.09;5113769;28;20084;-78
2021/09/19 04:28:03;;;;;;;19.95;6.03;;;;;;;4.52;66.23;100318.03;5114972;28;20027;-77
2021/09/19 04:30:30;;;;;;;19.38;5.63;;;;;;;4.55;66.06;100304.84;5113991;28;20048;-80
2021/09/19 04:32:56;;;;;;;19.17;6.40;;;;;;;4.52;66.02;100328.53;5113364;28;20100;-80
2021/09/19 04:35:21;;;;;;;14.60;6.20;;;;;;;4.49;66.34;100308.56;5114401;28;20044;-78
2021/09/19 04:37:47;;;;;;;22.38;5.88;;;;;;;4.57;66.22;100316.09;5113754;28;20452;-77
2021/09/19 04:40:14;;;;;;;20.13;7.05;;;;;;;4.58;66.03;100325.66;5114396;28;20088;-82
2021/09/19 04:42:39;;;;;;;17.25;6.55;;;;;;;4.54;66.16;100318.84;5114232;28;20043;-78
2021/09/19 04:45:07;;;;;;;20.20;5.93;;;;;;;4.59;66.03;100335.22;5114163;27;20043;-82
2021/09/19 04:47:32;;;;;;;21.63;5.22;;;;;;;4.64;65.96;100319.31;5114070;28;20039;-78
2021/09/19 04:49:58;;;;;;;19.95;5.50;;;;;;;4.64;65.57;100322.78;5113117;28;20659;-81
2021/09/19 04:52:24;;;;;;;22.13;6.45;;;;;;;4.66;66.18;100330.56;5114849;28;20027;-78
2021/09/19 04:54:50;;;;;;;18.92;6.00;;;;;;;4.70;65.92;100325.13;5114001;28;20095;-81
2021/09/19 04:57:15;;;;;;;32.25;5.97;;;;;;;4.73;66.28;100315.47;5114722;28;20066;-79
2021/09/19 04:59:41;;;;;;;19.42;6.07;;;;;;;4.80;65.26;100312.50;5112636;28;20511;-80
2021/09/19 05:02:07;;;;;;;13.57;5.57;;;;;;;4.85;65.50;100309.69;5113637;28;20029;-80
2021/09/19 05:04:33;;;;;;;13.80;5.38;;;;;;;4.82;65.50;100309.81;5114490;28;20028;-79
2021/09/19 05:06:59;;;;;;;19.33;5.68;;;;;;;4.84;65.30;100307.97;5114454;28;20867;-78
2021/09/19 05:09:25;;;;;;;14.40;5.47;;;;;;;4.88;65.24;100304.31;5113363;28;20039;-78
2021/09/19 05:11:50;;;;;;;14.55;5.80;;;;;;;4.92;65.50;100316.38;5114638;28;20046;-79
2021/09/19 05:14:16;;;;;;;22.50;5.85;;;;;;;4.97;64.94;100313.53;5114877;28;20043;-83
2021/09/19 05:16:42;;;;;;;16.67;5.78;;;;;;;5.04;64.84;100314.13;5113398;28;20078;-78
2021/09/19 05:19:08;;;;;;;18.75;5.40;;;;;;;5.08;65.00;100310.44;5114940;28;20034;-78
2021/09/19 05:21:34;;;;;;;22.88;6.10;;;;;;;5.14;64.97;100304.94;5096666;28;20039;-82
2021/09/19 05:24:00;;;;;;;11.35;5.28;;;;;;;5.18;64.75;100306.50;5114179;28;20118;-77
2021/09/19 05:26:26;;;;;;;14.85;5.47;;;;;;;5.24;64.31;100327.19;5115069;28;20027;-78
2021/09/19 05:28:52;;;;;;;19.13;6.57;;;;;;;5.23;63.91;100317.63;5112857;28;20490;-79
2021/09/19 05:31:18;;;;;;;15.73;5.35;;;;;;;5.18;64.08;100306.50;5113873;28;20121;-78
2021/09/19 05:33:46;;;;;;;10.98;5.50;;;;;;;5.21;64.07;100306.38;5113450;28;20048;-77
2021/09/19 05:36:21;;;;;;;22.02;6.18;;;;;;;5.26;63.77;100308.78;5097952;28;20039;-78
2021/09/19 05:38:47;;;;;;;14.88;5.45;;;;;;;5.35;63.75;100300.50;5095163;28;20047;-80
2021/09/19 05:41:13;;;;;;;14.77;5.53;;;;;;;5.40;63.52;100310.81;5113204;28;20043;-79
2021/09/19 05:43:38;;;;;;;16.27;5.97;;;;;;;5.33;63.52;100303.19;5113582;28;20067;-80
2021/09/19 05:46:04;;;;;;;19.73;6.82;;;;;;;5.44;63.59;100292.19;5112020;28;20028;-81
2021/09/19 05:48:30;;;;;;;20.38;6.07;;;;;;;5.45;63.61;100301.78;5113532;28;20126;-78
2021/09/19 05:50:56;;;;;;;19.70;5.90;;;;;;;5.35;64.13;100306.59;5113108;28;20104;-78
2021/09/19 05:53:22;;;;;;;19.42;6.07;;;;;;;5.39;63.35;100296.81;5112865;27;20067;-79
2021/09/19 05:55:47;;;;;;;15.20;5.97;;;;;;;5.43;63.22;100308.03;5113774;28;20443;-79
2021/09/19 05:58:13;;;;;;;15.32;6.43;;;;;;;5.51;63.20;100313.78;5113513;28;20047;-80
2021/09/19 06:00:39;;;;;;;19.55;6.05;;;;;;;5.58;63.71;100293.34;5113624;28;20035;-80
2021/09/19 06:03:05;;;;;;;31.27;6.93;;;;;;;5.63;63.34;100302.72;5113308;28;20380;-78
2021/09/19 06:05:30;;;;;;;22.90;7.63;;;;;;;5.57;63.12;100307.38;5095768;28;20468;-78
2021/09/19 06:07:56;;;;;;;23.50;8.13;;;;;;;5.58;63.18;100298.59;5114825;28;20038;-83
2021/09/19 06:10:22;;;;;;;31.77;7.57;;;;;;;5.71;62.94;100309.34;5096020;28;20080;-81
2021/09/19 06:12:48;;;;;;;17.08;7.43;;;;;;;5.76;62.69;100291.66;5096785;28;20044;-82
2021/09/19 06:15:13;;;;;;;21.98;7.40;;;;;;;5.81;62.32;100310.66;5096333;28;20042;-78
2021/09/19 06:17:39;;;;;;;20.63;6.38;;;;;;;5.80;62.58;100304.53;5113305;28;20395;-82
2021/09/19 06:20:06;;;;;;;14.52;6.07;;;;;;;5.74;62.34;100299.56;5095809;28;20036;-78
2021/09/19 06:22:32;;;;;;;19.17;7.00;;;;;;;5.85;62.82;100317.44;5113854;28;20043;-81
2021/09/19 06:24:57;;;;;;;19.25;5.97;;;;;;;5.83;62.01;100299.16;5114491;28;20100;-82
2021/09/19 06:27:24;;;;;;;15.40;5.30;;;;;;;5.85;61.79;100316.63;5116488;28;20410;-81
2021/09/19 06:29:50;;;;;;;16.73;6.57;;;;;;;5.81;61.92;100289.66;5097801;28;20035;-80
2021/09/19 06:32:16;;;;;;;14.82;5.65;;;;;;;5.82;62.53;100288.75;5116995;28;20052;-78
2021/09/19 06:34:42;;;;;;;13.40;5.90;;;;;;;6.00;61.98;100289.66;5117098;28;20080;-76
2021/09/19 06:37:08;;;;;;;23.35;6.35;;;;;;;5.99;62.41;100295.81;5117855;28;20041;-80
2021/09/19 06:39:34;;;;;;;24.80;6.90;;;;;;;6.07;61.89;100290.19;5119587;28;20038;-79
2021/09/19 06:42:00;;;;;;;17.80;5.43;;;;;;;5.99;61.87;100288.81;5116673;28;20043;-81
2021/09/19 06:44:26;;;;;;;21.35;6.03;;;;;;;6.05;61.70;100298.16;5097765;28;20048;-79
2021/09/19 06:46:56;;;;;;;18.63;6.22;;;;;;;6.10;61.42;100285.66;5114603;28;20468;-80
2021/09/19 06:49:25;;;;;;;13.07;5.25;;;;;;;6.13;61.13;100289.91;5115255;28;20047;-79
2021/09/19 06:51:52;;;;;;;28.35;7.40;;;;;;;6.23;61.38;100285.91;5116922;28;20036;-78
2021/09/19 06:54:19;;;;;;;14.23;6.13;;;;;;;6.28;61.20;100283.91;5112654;28;20054;-79
2021/09/19 06:56:47;;;;;;;22.33;7.03;;;;;;;6.45;61.29;100290.09;5115888;28;20039;-79
2021/09/19 06:59:13;;;;;;;16.83;5.60;;;;;;;6.40;60.76;100292.09;5096390;28;20099;-82
2021/09/19 07:01:38;;;;;;;14.18;5.88;;;;;;;6.48;60.58;100289.97;5097934;28;20096;-81
2021/09/19 07:04:04;;;;;;;18.23;7.70;;;;;;;6.52;60.33;100286.25;5112775;28;20035;-78
2021/09/19 07:06:30;;;;;;;12.82;5.05;;;;;;;6.48;60.47;100274.19;5115244;28;20063;-79
2021/09/19 07:08:57;;;;;;;15.60;5.75;;;;;;;6.61;59.72;100275.25;5095392;28;20041;-79
2021/09/19 07:11:23;;;;;;;13.73;6.13;;;;;;;6.72;60.06;100279.13;5114750;28;20514;-81
2021/09/19 07:13:48;;;;;;;12.70;4.70;;;;;;;6.76;59.48;100288.53;5094894;28;20035;-81
2021/09/19 07:16:15;;;;;;;14.15;5.50;;;;;;;6.73;59.54;100278.16;5081144;28;20035;-81
2021/09/19 07:18:42;;;;;;;22.25;6.43;;;;;;;6.81;59.80;100297.03;5115690;28;20054;-79
2021/09/19 07:21:09;;;;;;;12.57;5.53;;;;;;;6.85;59.14;100280.16;5114469;28;20063;-80
2021/09/19 07:24:03;;;;;;;17.65;6.28;;;;;;;7.00;58.87;100264.53;5101834;28;20046;-81
2021/09/19 07:26:29;;;;;;;17.30;6.22;;;;;;;7.15;58.93;100268.97;5112951;28;20024;-78
2021/09/19 07:28:55;;;;;;;16.15;5.65;;;;;;;7.28;58.96;100254.22;5095759;28;20434;-80
2021/09/19 07:31:21;;;;;;;14.68;5.03;;;;;;;7.31;58.83;100260.28;5114550;28;20024;-81
2021/09/19 07:33:47;;;;;;;14.32;5.50;;;;;;;7.34;58.57;100262.72;5098989;28;20036;-81
2021/09/19 07:36:15;;;;;;;18.92;5.68;;;;;;;7.42;57.87;100266.63;5113487;28;20429;-81
2021/09/19 07:38:41;;;;;;;14.15;6.15;;;;;;;7.37;58.00;100249.41;5116383;28;20032;-80
2021/09/19 07:41:07;;;;;;;14.77;5.30;;;;;;;7.54;58.01;100251.97;5102813;28;20044;-80
2021/09/19 07:43:33;;;;;;;22.33;6.25;;;;;;;7.55;57.46;100256.31;5100409;28;20040;-80
2021/09/19 07:45:59;;;;;;;16.48;6.45;;;;;;;7.58;57.39;100235.06;5119096;28;20039;-79
2021/09/19 07:48:25;;;;;;;21.67;7.00;;;;;;;7.69;57.81;100252.03;5118730;28;20045;-78
2021/09/19 07:50:52;;;;;;;22.17;5.75;;;;;;;7.75;56.97;100247.28;5119125;28;20524;-82
2021/09/19 07:53:18;;;;;;;20.90;6.30;;;;;;;7.80;57.21;100241.78;5103775;28;20046;-81
2021/09/19 07:55:43;;;;;;;30.65;6.50;;;;;;;7.89;57.18;100235.13;5117836;28;20042;-78
2021/09/19 07:58:09;;;;;;;17.73;5.25;;;;;;;7.89;57.03;100238.59;5115098;28;20365;-79
2021/09/19 08:00:35;;;;;;;17.75;5.63;;;;;;;7.79;56.49;100234.81;5116945;28;20092;-78
2021/09/19 08:03:01;;;;;;;14.10;4.72;;;;;;;7.78;57.22;100238.38;5118851;28;20039;-81
2021/09/19 08:05:27;;;;;;;10.60;4.43;;;;;;;7.74;57.08;100242.13;5099098;28;20434;-79
2021/09/19 08:07:53;;;;;;;19.10;7.00;;;;;;;7.66;56.94;100225.91;5098113;28;20032;-78
2021/09/19 08:10:20;;;;;;;17.67;7.78;;;;;;;7.65;57.38;100224.19;5100072;28;20032;-79
2021/09/19 08:12:47;;;;;;;31.23;8.10;;;;;;;7.60;57.26;100227.06;5117029;28;20071;-80
2021/09/19 08:15:17;;;;;;;26.13;7.18;;;;;;;7.59;57.41;100234.13;5118269;28;20035;-80
2021/09/19 08:17:44;;;;;;;19.50;5.72;;;;;;;7.67;57.16;100217.06;5099358;28;20383;-78
2021/09/19 08:20:11;;;;;;;16.00;6.35;;;;;;;7.66;57.53;100232.00;5116875;28;20036;-79
2021/09/19 08:22:37;;;;;;;10.55;5.35;;;;;;;7.61;57.26;100227.00;5098696;28;20046;-80
2021/09/19 08:25:06;;;;;;;12.30;4.90;;;;;;;7.58;57.48;100227.16;5116372;28;20114;-78
2021/09/19 08:27:34;;;;;;;15.30;4.90;;;;;;;7.58;56.96;100245.59;5115518;28;20098;-79
2021/09/19 08:30:01;;;;;;;22.83;6.47;;;;;;;7.66;56.88;100237.25;5117537;28;20063;-81
2021/09/19 08:32:28;;;;;;;16.40;4.60;;;;;;;7.58;57.13;100266.66;5116228;28;20541;-80
2021/09/19 08:34:54;;;;;;;15.87;4.50;;;;;;;7.54;56.64;100254.59;5115963;28;20027;-81
2021/09/19 08:37:20;;;;;;;12.23;5.05;;;;;;;7.59;57.23;100225.41;5081143;28;20710;-81
2021/09/19 08:39:46;;;;;;;13.88;5.10;;;;;;;7.66;56.78;100229.38;5115451;28;20039;-79
2021/09/19 08:42:12;;;;;;;11.25;5.03;;;;;;;7.71;56.60;100234.38;5115720;28;20107;-79
2021/09/19 08:44:38;;;;;;;12.88;5.82;;;;;;;7.71;56.85;100242.28;5098334;28;20080;-80
2021/09/19 08:47:04;;;;;;;11.77;4.25;;;;;;;7.66;56.58;100232.00;5117260;28;20043;-81
2021/09/19 08:49:31;;;;;;;16.08;4.78;;;;;;;7.74;56.30;100247.38;5114952;28;20053;-79
2021/09/19 08:51:57;;;;;;;23.58;6.07;;;;;;;7.77;55.85;100244.56;5115377;28;20040;-80
2021/09/19 08:54:23;;;;;;;26.83;5.35;;;;;;;7.90;55.59;100228.91;5114089;28;20123;-81
2021/09/19 08:56:49;;;;;;;10.32;4.13;;;;;;;7.91;55.40;100246.41;5115009;28;20059;-81
2021/09/19 08:59:15;;;;;;;11.25;4.13;;;;;;;7.92;55.31;100241.09;5115648;28;20043;-79
2021/09/19 09:02:02;;;;;;;15.38;4.90;;;;;;;8.02;55.43;100256.34;5115028;28;20035;-79
2021/09/19 09:04:31;;;;;;;8.30;4.37;;;;;;;7.93;54.62;100228.75;5080020;28;20047;-81
2021/09/19 09:06:59;;;;;;;8.48;3.65;;;;;;;7.92;54.75;100245.47;5080433;28;20331;-80
2021/09/19 09:09:24;;;;;;;;;;;;;;;7.91;55.46;100257.81;5114611;28;20088;-80
2021/09/19 09:12:11;;;;;;;11.52;4.20;;;;;;;7.94;54.84;100252.38;5114068;28;20006;-78
2021/09/19 09:14:42;;;;;;;11.60;3.92;;;;;;;7.84;55.26;100251.19;5113141;28;20092;-82
2021/09/19 09:17:18;;;;;;;15.70;4.35;;;;;;;7.86;55.42;100249.34;5114738;28;20039;-79
2021/09/19 09:19:46;;;;;;;10.18;4.35;;;;;;;7.92;55.55;100233.19;5114195;28;20035;-79
2021/09/19 09:22:14;;;;;;;19.92;4.85;;;;;;;8.00;54.82;100240.66;5114684;28;20127;-80
2021/09/19 09:24:42;;;;;;;17.67;5.63;;;;;;;8.00;55.15;100245.03;5114346;28;20074;-77
2021/09/19 09:27:19;;;;;;;9.60;4.32;;;;;;;7.97;54.98;100239.97;5080947;28;20038;-80
2021/09/19 09:30:09;;;;;;;13.27;4.65;;;;;;;8.00;55.25;100247.69;5114871;28;20028;-83
2021/09/19 09:32:53;;;;;;;12.55;4.05;;;;;;;8.00;54.80;100245.03;5114134;28;20368;-82
2021/09/19 09:35:19;;;;;;;15.25;4.40;;;;;;;8.00;55.25;100255.56;5098562;28;20460;-80
2021/09/19 09:37:45;;;;;;;13.02;4.68;;;;;;;8.01;55.10;100244.09;5113885;28;20032;-80
2021/09/19 09:40:18;;;;;;;11.05;4.70;;;;;;;8.05;55.61;100248.25;5079627;28;20043;-80
2021/09/19 09:43:01;;;;;;;15.48;4.50;;;;;;;8.02;55.25;100248.44;5096256;28;20384;-79
2021/09/19 09:45:27;;;;;;;12.85;4.85;;;;;;;8.01;54.95;100241.47;5114765;28;20118;-81
2021/09/19 09:47:57;;;;;;;18.13;4.97;;;;;;;8.08;55.23;100248.94;5114749;28;20467;-82
2021/09/19 09:50:26;;;;;;;16.42;4.75;;;;;;;7.99;54.97;100238.94;5115940;28;20049;-80
2021/09/19 09:53:07;;;;;;;19.33;5.05;;;;;;;8.00;55.29;100234.50;5113871;28;20418;-81
2021/09/19 09:55:34;;;;;;;17.85;5.45;;;;;;;8.07;55.12;100235.84;5113019;28;20088;-84
2021/09/19 09:58:08;;;;;;;13.27;4.60;;;;;;;8.04;55.11;100225.50;5115533;28;20035;-81
2021/09/19 10:00:34;;;;;;;12.77;4.68;;;;;;;8.08;55.80;100221.75;5097503;28;20472;-83
2021/09/19 10:03:00;;;;;;;12.93;4.85;;;;;;;8.15;55.33;100216.97;5129193;27;20043;-79
2021/09/19 10:05:26;;;;;;;13.05;4.40;;;;;;;8.14;55.17;100218.75;5117156;27;20074;-80
2021/09/19 10:07:52;;;;;;;11.65;3.92;;;;;;;8.16;55.57;100206.38;5118009;27;20058;-81
2021/09/19 10:10:23;;;;;;;14.70;5.25;;;;;;;8.15;55.17;100217.84;5133222;27;20543;-83
2021/09/19 10:12:51;;;;;;;17.52;5.35;;;;;;;8.18;55.32;100201.00;5101167;27;20031;-81
2021/09/19 10:15:18;;;;;;;15.33;4.13;;;;;;;8.18;54.72;100207.09;5099839;27;20043;-79
2021/09/19 10:17:46;;;;;;;15.23;5.00;;;;;;;8.23;54.86;100198.94;5116649;27;20273;-81
2021/09/19 10:20:19;;;;;;;18.17;5.55;;;;;;;8.24;54.99;100195.38;5133730;27;20046;-79
2021/09/19 10:23:20;;;;;;;18.55;5.72;;;;;;;8.24;54.57;100190.09;5134140;27;20039;-80
2021/09/19 10:25:49;;;;;;;13.65;6.65;;;;;;;8.29;54.63;100210.88;5116518;27;20360;-82
2021/09/19 10:28:16;;;;;;;14.50;5.20;;;;;;;8.34;54.29;100222.88;5133258;27;20050;-80
2021/09/19 10:31:11;;;;;;;17.55;5.75;;;;;;;8.38;54.39;100224.38;5133332;27;20043;-80
2021/09/19 10:33:40;;;;;;;16.58;4.85;;;;;;;8.34;54.12;100190.41;5133728;27;20460;-81
2021/09/19 10:36:34;;;;;;;15.57;4.53;;;;;;;8.36;54.10;100176.19;5135698;27;20103;-80
2021/09/19 10:39:30;;;;;;;14.43;4.40;;;;;;;8.36;53.73;100188.50;5122597;28;20103;-79
2021/09/19 10:42:25;;;;;;;19.27;5.78;;;;;;;8.39;53.92;100180.44;5115689;28;20042;-81
2021/09/19 10:44:51;;;;;;;13.15;5.05;;;;;;;8.38;54.16;100186.63;5116681;28;20080;-80
2021/09/19 10:47:22;;;;;;;17.00;5.50;;;;;;;8.35;53.65;100178.91;5134057;28;20390;-83
2021/09/19 10:49:49;;;;;;;15.05;5.13;;;;;;;8.36;54.10;100194.63;5134458;28;20042;-78
2021/09/19 10:52:18;;;;;;;17.02;6.07;;;;;;;8.42;53.88;100169.69;5133443;28;20043;-80
2021/09/19 10:54:49;;;;;;;18.70;5.65;;;;;;;8.40;53.96;100190.03;5135994;28;20034;-82
2021/09/19 10:57:34;;;;;;;16.27;5.78;;;;;;;8.45;53.76;100177.44;5116478;28;20095;-80
2021/09/19 11:00:12;;;;;;;19.83;5.50;;;;;;;8.47;53.80;100172.09;5135441;28;20035;-79
2021/09/19 11:02:40;;;;;;;14.52;5.65;;;;;;;8.40;53.44;100169.78;5133563;28;20064;-79
2021/09/19 11:05:29;;;;;;;15.27;4.45;;;;;;;8.42;53.84;100178.47;5132115;28;20475;-80
2021/09/19 11:08:07;;;;;;;12.05;4.90;;;;;;;8.46;53.89;100178.25;5134366;28;20463;-80
2021/09/19 11:10:55;;;;;;;16.50;6.53;;;;;;;8.39;53.76;100172.53;5134572;28;20082;-79
2021/09/19 11:13:36;;;;;;;23.80;5.82;;;;;;;8.50;53.57;100164.84;5116549;28;20042;-79
2021/09/19 11:16:30;;;;;;;16.70;5.70;;;;;;;8.49;53.57;100157.88;5137645;27;20110;-80
2021/09/19 11:19:00;;;;;;;11.30;4.68;;;;;;;8.45;53.37;100171.28;5120849;27;20066;-82
2021/09/19 11:21:26;;;;;;;18.67;7.57;;;;;;;8.47;53.53;100154.47;5121458;27;20391;-80
2021/09/19 11:23:54;;;;;;;22.77;7.05;;;;;;;8.44;53.52;100149.38;5139020;27;20039;-82
2021/09/19 11:26:23;;;;;;;18.42;5.45;;;;;;;8.43;53.85;100158.22;5102170;27;20061;-79
2021/09/19 11:28:50;;;;;;;21.48;4.70;;;;;;;8.38;53.48;100141.81;5103058;27;20043;-79
2021/09/19 11:31:17;;;;;;;17.70;4.68;;;;;;;8.48;53.98;100150.91;5138136;27;20527;-80